sensor_id;sensor_type;location;lat;lon;timestamp;P1;durP1;ratioP1;P2;durP2;ratioP2
21162;SDS011;10739;52.198;20.908;2023-09-19T00:00:57;15.50;;;12.68;;
21162;SDS011;10739;52.198;20.908;2023-09-19T00:03:24;18.65;;;13.40;;
21162;SDS011;10739;52.198;20.908;2023-09-19T00:05:53;15.57;;;12.50;;
21162;SDS011;10739;52.198;20.908;2023-09-19T00:08:20;16.13;;;13.07;;
21162;SDS011;10739;52.198;20.908;2023-09-19T00:10:50;15.73;;;13.02;;
21162;SDS011;10739;52.198;20.908;2023-09-19T00:13:16;15.27;;;13.20;;
21162;SDS011;10739;52.198;20.908;2023-09-19T00:15:45;20.58;;;13.50;;
21162;SDS011;10739;52.198;20.908;2023-09-19T00:18:17;15.10;;;13.50;;
21162;SDS011;10739;52.198;20.908;2023-09-19T00:20:48;16.90;;;14.00;;
21162;SDS011;10739;52.198;20.908;2023-09-19T00:23:17;15.63;;;12.35;;
21162;SDS011;10739;52.198;20.908;2023-09-19T00:25:44;21.95;;;13.82;;
21162;SDS011;10739;52.198;20.908;2023-09-19T00:28:10;17.50;;;13.98;;
21162;SDS011;10739;52.198;20.908;2023-09-19T00:30:37;17.45;;;14.18;;
21162;SDS011;10739;52.198;20.908;2023-09-19T00:33:07;16.15;;;13.20;;
21162;SDS011;10739;52.198;20.908;2023-09-19T00:35:33;18.42;;;13.57;;
21162;SDS011;10739;52.198;20.908;2023-09-19T00:38:00;20.55;;;14.13;;
21162;SDS011;10739;52.198;20.908;2023-09-19T00:40:27;20.08;;;14.02;;
21162;SDS011;10739;52.198;20.908;2023-09-19T00:42:57;15.20;;;13.52;;
21162;SDS011;10739;52.198;20.908;2023-09-19T00:45:26;19.15;;;14.25;;
21162;SDS011;10739;52.198;20.908;2023-09-19T00:47:56;18.83;;;14.40;;
21162;SDS011;10739;52.198;20.908;2023-09-19T00:50:23;19.13;;;13.95;;
21162;SDS011;10739;52.198;20.908;2023-09-19T00:52:55;16.20;;;13.95;;
21162;SDS011;10739;52.198;20.908;2023-09-19T00:55:22;15.35;;;13.60;;
21162;SDS011;10739;52.198;20.908;2023-09-19T00:57:50;18.08;;;14.23;;
21162;SDS011;10739;52.198;20.908;2023-09-19T01:00:18;16.38;;;14.02;;
21162;SDS011;10739;52.198;20.908;2023-09-19T01:02:45;22.00;;;14.13;;
21162;SDS011;10739;52.198;20.908;2023-09-19T01:05:12;17.48;;;14.50;;
21162;SDS011;10739;52.198;20.908;2023-09-19T01:07:39;20.27;;;14.30;;
21162;SDS011;10739;52.198;20.908;2023-09-19T01:10:06;18.35;;;13.32;;
21162;SDS011;10739;52.198;20.908;2023-09-19T01:15:21;18.05;;;13.35;;
21162;SDS011;10739;52.198;20.908;2023-09-19T01:21:11;23.40;;;13.82;;
21162;SDS011;10739;52.198;20.908;2023-09-19T01:27:25;18.63;;;14.68;;
21162;SDS011;10739;52.198;20.908;2023-09-19T01:30:32;19.35;;;15.23;;
21162;SDS011;10739;52.198;20.908;2023-09-19T01:33:05;19.45;;;15.10;;
21162;SDS011;10739;52.198;20.908;2023-09-19T01:35:33;23.33;;;14.18;;
21162;SDS011;10739;52.198;20.908;2023-09-19T01:38:00;20.52;;;13.88;;
21162;SDS011;10739;52.198;20.908;2023-09-19T01:40:26;20.60;;;13.65;;
21162;SDS011;10739;52.198;20.908;2023-09-19T01:48:40;19.75;;;14.65;;
21162;SDS011;10739;52.198;20.908;2023-09-19T01:51:18;19.48;;;14.40;;
21162;SDS011;10739;52.198;20.908;2023-09-19T01:54:16;19.48;;;13.68;;
21162;SDS011;10739;52.198;20.908;2023-09-19T01:56:57;17.05;;;14.50;;
21162;SDS011;10739;52.198;20.908;2023-09-19T01:59:42;19.05;;;14.35;;
21162;SDS011;10739;52.198;20.908;2023-09-19T02:02:16;15.65;;;13.15;;
21162;SDS011;10739;52.198;20.908;2023-09-19T02:04:46;17.52;;;13.63;;
21162;SDS011;10739;52.198;20.908;2023-09-19T02:07:16;17.52;;;13.95;;
21162;SDS011;10739;52.198;20.908;2023-09-19T02:09:42;16.40;;;13.55;;
21162;SDS011;10739;52.198;20.908;2023-09-19T02:12:09;16.45;;;13.98;;
21162;SDS011;10739;52.198;20.908;2023-09-19T02:14:35;19.63;;;13.98;;
21162;SDS011;10739;52.198;20.908;2023-09-19T02:17:02;17.75;;;13.93;;
21162;SDS011;10739;52.198;20.908;2023-09-19T02:19:32;16.80;;;14.38;;
21162;SDS011;10739;52.198;20.908;2023-09-19T02:21:59;17.58;;;14.25;;
21162;SDS011;10739;52.198;20.908;2023-09-19T02:24:28;18.35;;;14.20;;
21162;SDS011;10739;52.198;20.908;2023-09-19T02:26:54;20.67;;;14.68;;
21162;SDS011;10739;52.198;20.908;2023-09-19T02:29:21;19.13;;;14.63;;
21162;SDS011;10739;52.198;20.908;2023-09-19T02:31:47;17.98;;;13.13;;
21162;SDS011;10739;52.198;20.908;2023-09-19T02:34:14;19.38;;;13.63;;
21162;SDS011;10739;52.198;20.908;2023-09-19T02:36:41;18.52;;;14.80;;
21162;SDS011;10739;52.198;20.908;2023-09-19T02:39:09;17.17;;;15.05;;
21162;SDS011;10739;52.198;20.908;2023-09-19T02:41:36;21.20;;;14.63;;
21162;SDS011;10739;52.198;20.908;2023-09-19T02:44:02;20.67;;;13.45;;
21162;SDS011;10739;52.198;20.908;2023-09-19T02:46:33;20.98;;;14.85;;
21162;SDS011;10739;52.198;20.908;2023-09-19T02:49:01;20.25;;;14.25;;
21162;SDS011;10739;52.198;20.908;2023-09-19T02:51:32;18.65;;;14.38;;
21162;SDS011;10739;52.198;20.908;2023-09-19T02:54:01;20.17;;;16.25;;
21162;SDS011;10739;52.198;20.908;2023-09-19T02:56:31;15.20;;;13.63;;
21162;SDS011;10739;52.198;20.908;2023-09-19T02:58:57;18.10;;;14.68;;
21162;SDS011;10739;52.198;20.908;2023-09-19T03:01:26;18.33;;;14.93;;
21162;SDS011;10739;52.198;20.908;2023-09-19T03:03:53;17.50;;;14.45;;
21162;SDS011;10739;52.198;20.908;2023-09-19T03:06:20;17.38;;;14.35;;
21162;SDS011;10739;52.198;20.908;2023-09-19T03:08:47;16.98;;;14.25;;
21162;SDS011;10739;52.198;20.908;2023-09-19T03:11:16;21.02;;;14.45;;
21162;SDS011;10739;52.198;20.908;2023-09-19T03:13:50;19.77;;;15.13;;
21162;SDS011;10739;52.198;20.908;2023-09-19T03:16:20;17.40;;;15.02;;
21162;SDS011;10739;52.198;20.908;2023-09-19T03:18:51;16.95;;;14.20;;
21162;SDS011;10739;52.198;20.908;2023-09-19T03:21:17;16.50;;;13.95;;
21162;SDS011;10739;52.198;20.908;2023-09-19T03:23:44;18.02;;;14.40;;
21162;SDS011;10739;52.198;20.908;2023-09-19T03:26:13;18.05;;;14.93;;
21162;SDS011;10739;52.198;20.908;2023-09-19T03:28:41;22.52;;;14.18;;
21162;SDS011;10739;52.198;20.908;2023-09-19T03:31:08;20.35;;;15.18;;
21162;SDS011;10739;52.198;20.908;2023-09-19T03:33:35;21.95;;;15.35;;
21162;SDS011;10739;52.198;20.908;2023-09-19T03:36:03;18.92;;;14.57;;
21162;SDS011;10739;52.198;20.908;2023-09-19T03:38:31;27.98;;;15.77;;
21162;SDS011;10739;52.198;20.908;2023-09-19T03:40:58;19.05;;;15.23;;
21162;SDS011;10739;52.198;20.908;2023-09-19T03:43:25;23.33;;;15.45;;
21162;SDS011;10739;52.198;20.908;2023-09-19T03:45:51;19.55;;;15.45;;
21162;SDS011;10739;52.198;20.908;2023-09-19T03:48:19;20.85;;;14.95;;
21162;SDS011;10739;52.198;20.908;2023-09-19T03:50:47;23.67;;;14.63;;
21162;SDS011;10739;52.198;20.908;2023-09-19T03:53:13;18.15;;;15.38;;
21162;SDS011;10739;52.198;20.908;2023-09-19T03:55:40;21.65;;;16.15;;
21162;SDS011;10739;52.198;20.908;2023-09-19T03:58:06;24.40;;;16.05;;
21162;SDS011;10739;52.198;20.908;2023-09-19T04:00:32;19.40;;;16.00;;
21162;SDS011;10739;52.198;20.908;2023-09-19T04:02:59;21.00;;;15.00;;
21162;SDS011;10739;52.198;20.908;2023-09-19T04:05:31;19.30;;;14.18;;
21162;SDS011;10739;52.198;20.908;2023-09-19T04:07:58;20.45;;;15.63;;
21162;SDS011;10739;52.198;20.908;2023-09-19T04:10:24;19.00;;;14.88;;
21162;SDS011;10739;52.198;20.908;2023-09-19T04:12:51;20.05;;;14.90;;
21162;SDS011;10739;52.198;20.908;2023-09-19T04:15:21;19.35;;;15.57;;
21162;SDS011;10739;52.198;20.908;2023-09-19T04:17:49;17.77;;;15.43;;
21162;SDS011;10739;52.198;20.908;2023-09-19T04:20:17;17.17;;;15.25;;
21162;SDS011;10739;52.198;20.908;2023-09-19T04:22:48;21.48;;;15.90;;
21162;SDS011;10739;52.198;20.908;2023-09-19T04:25:15;20.40;;;15.38;;
21162;SDS011;10739;52.198;20.908;2023-09-19T04:27:41;19.58;;;15.00;;
21162;SDS011;10739;52.198;20.908;2023-09-19T04:30:09;27.17;;;15.40;;
21162;SDS011;10739;52.198;20.908;2023-09-19T04:32:38;23.52;;;16.50;;
21162;SDS011;10739;52.198;20.908;2023-09-19T04:35:07;20.85;;;16.23;;
21162;SDS011;10739;52.198;20.908;2023-09-19T04:37:36;21.83;;;15.65;;
21162;SDS011;10739;52.198;20.908;2023-09-19T04:40:05;21.42;;;15.98;;
21162;SDS011;10739;52.198;20.908;2023-09-19T04:42:42;24.75;;;16.40;;
21162;SDS011;10739;52.198;20.908;2023-09-19T04:45:09;21.30;;;15.27;;
21162;SDS011;10739;52.198;20.908;2023-09-19T04:47:36;22.20;;;17.70;;
21162;SDS011;10739;52.198;20.908;2023-09-19T04:50:07;21.65;;;17.33;;
21162;SDS011;10739;52.198;20.908;2023-09-19T04:55:13;23.70;;;15.73;;
21162;SDS011;10739;52.198;20.908;2023-09-19T04:57:43;19.63;;;15.90;;
21162;SDS011;10739;52.198;20.908;2023-09-19T05:00:13;20.65;;;15.07;;
21162;SDS011;10739;52.198;20.908;2023-09-19T05:02:43;19.90;;;14.32;;
21162;SDS011;10739;52.198;20.908;2023-09-19T05:05:14;22.75;;;14.63;;
21162;SDS011;10739;52.198;20.908;2023-09-19T05:07:44;18.00;;;14.73;;
21162;SDS011;10739;52.198;20.908;2023-09-19T05:10:13;18.20;;;14.63;;
21162;SDS011;10739;52.198;20.908;2023-09-19T05:12:44;19.73;;;14.90;;
21162;SDS011;10739;52.198;20.908;2023-09-19T05:15:13;19.30;;;15.25;;
21162;SDS011;10739;52.198;20.908;2023-09-19T05:17:47;23.52;;;16.23;;
21162;SDS011;10739;52.198;20.908;2023-09-19T05:20:20;20.55;;;14.70;;
21162;SDS011;10739;52.198;20.908;2023-09-19T05:22:58;16.83;;;14.90;;
21162;SDS011;10739;52.198;20.908;2023-09-19T05:25:38;17.48;;;14.38;;
21162;SDS011;10739;52.198;20.908;2023-09-19T05:28:06;18.85;;;14.57;;
21162;SDS011;10739;52.198;20.908;2023-09-19T05:30:34;19.58;;;14.05;;
21162;SDS011;10739;52.198;20.908;2023-09-19T05:33:05;19.92;;;14.32;;
21162;SDS011;10739;52.198;20.908;2023-09-19T05:35:31;22.88;;;14.15;;
21162;SDS011;10739;52.198;20.908;2023-09-19T05:37:58;23.83;;;14.40;;
21162;SDS011;10739;52.198;20.908;2023-09-19T05:40:25;17.10;;;13.35;;
21162;SDS011;10739;52.198;20.908;2023-09-19T05:42:52;19.67;;;13.45;;
21162;SDS011;10739;52.198;20.908;2023-09-19T05:45:18;21.02;;;13.43;;
21162;SDS011;10739;52.198;20.908;2023-09-19T05:47:48;22.25;;;13.98;;
21162;SDS011;10739;52.198;20.908;2023-09-19T05:50:15;24.83;;;12.85;;
21162;SDS011;10739;52.198;20.908;2023-09-19T05:52:42;17.65;;;13.00;;
21162;SDS011;10739;52.198;20.908;2023-09-19T05:55:11;19.10;;;13.68;;
21162;SDS011;10739;52.198;20.908;2023-09-19T05:57:37;20.85;;;13.60;;
21162;SDS011;10739;52.198;20.908;2023-09-19T06:00:10;22.20;;;14.02;;
21162;SDS011;10739;52.198;20.908;2023-09-19T06:02:37;21.13;;;13.82;;
21162;SDS011;10739;52.198;20.908;2023-09-19T06:05:04;20.85;;;13.00;;
21162;SDS011;10739;52.198;20.908;2023-09-19T06:07:34;23.05;;;13.18;;
21162;SDS011;10739;52.198;20.908;2023-09-19T06:10:05;19.75;;;14.15;;
21162;SDS011;10739;52.198;20.908;2023-09-19T06:12:33;18.65;;;13.45;;
21162;SDS011;10739;52.198;20.908;2023-09-19T06:15:08;19.42;;;12.82;;
21162;SDS011;10739;52.198;20.908;2023-09-19T06:17:41;16.35;;;12.73;;
21162;SDS011;10739;52.198;20.908;2023-09-19T06:20:12;16.60;;;13.57;;
21162;SDS011;10739;52.198;20.908;2023-09-19T06:22:40;15.85;;;12.45;;
21162;SDS011;10739;52.198;20.908;2023-09-19T06:25:08;22.95;;;13.35;;
21162;SDS011;10739;52.198;20.908;2023-09-19T06:27:47;16.33;;;13.13;;
21162;SDS011;10739;52.198;20.908;2023-09-19T06:30:14;19.90;;;13.50;;
21162;SDS011;10739;52.198;20.908;2023-09-19T06:32:41;16.20;;;13.10;;
21162;SDS011;10739;52.198;20.908;2023-09-19T06:35:13;17.10;;;13.07;;
21162;SDS011;10739;52.198;20.908;2023-09-19T06:37:42;18.65;;;12.45;;
21162;SDS011;10739;52.198;20.908;2023-09-19T06:42:43;16.70;;;12.40;;
21162;SDS011;10739;52.198;20.908;2023-09-19T06:45:11;15.43;;;11.13;;
21162;SDS011;10739;52.198;20.908;2023-09-19T06:47:43;13.53;;;12.07;;
21162;SDS011;10739;52.198;20.908;2023-09-19T06:50:17;17.98;;;11.93;;
21162;SDS011;10739;52.198;20.908;2023-09-19T06:52:51;16.60;;;11.90;;
21162;SDS011;10739;52.198;20.908;2023-09-19T06:55:22;17.80;;;12.70;;
21162;SDS011;10739;52.198;20.908;2023-09-19T06:57:56;12.43;;;11.13;;
21162;SDS011;10739;52.198;20.908;2023-09-19T07:00:23;14.15;;;11.07;;
21162;SDS011;10739;52.198;20.908;2023-09-19T07:03:01;17.30;;;11.45;;
21162;SDS011;10739;52.198;20.908;2023-09-19T07:05:31;21.45;;;11.55;;
21162;SDS011;10739;52.198;20.908;2023-09-19T07:08:01;14.55;;;11.20;;
21162;SDS011;10739;52.198;20.908;2023-09-19T07:10:28;16.67;;;11.60;;
21162;SDS011;10739;52.198;20.908;2023-09-19T07:15:26;15.93;;;10.98;;
21162;SDS011;10739;52.198;20.908;2023-09-19T07:17:54;16.30;;;10.90;;
21162;SDS011;10739;52.198;20.908;2023-09-19T07:20:21;12.93;;;10.82;;
21162;SDS011;10739;52.198;20.908;2023-09-19T07:22:52;13.70;;;10.95;;
21162;SDS011;10739;52.198;20.908;2023-09-19T07:25:25;22.37;;;12.00;;
21162;SDS011;10739;52.198;20.908;2023-09-19T07:27:52;13.13;;;11.32;;
21162;SDS011;10739;52.198;20.908;2023-09-19T07:30:20;19.48;;;12.05;;
21162;SDS011;10739;52.198;20.908;2023-09-19T07:32:47;20.42;;;11.63;;
21162;SDS011;10739;52.198;20.908;2023-09-19T07:35:13;15.35;;;12.15;;
21162;SDS011;10739;52.198;20.908;2023-09-19T07:37:40;23.35;;;14.13;;
21162;SDS011;10739;52.198;20.908;2023-09-19T07:40:06;16.50;;;12.90;;
21162;SDS011;10739;52.198;20.908;2023-09-19T07:42:34;15.95;;;13.82;;
21162;SDS011;10739;52.198;20.908;2023-09-19T07:45:04;21.08;;;13.75;;
21162;SDS011;10739;52.198;20.908;2023-09-19T07:47:31;19.73;;;13.32;;
21162;SDS011;10739;52.198;20.908;2023-09-19T07:49:58;22.17;;;14.23;;
21162;SDS011;10739;52.198;20.908;2023-09-19T07:52:27;23.08;;;13.45;;
21162;SDS011;10739;52.198;20.908;2023-09-19T07:54:54;19.40;;;13.52;;
21162;SDS011;10739;52.198;20.908;2023-09-19T07:57:22;25.00;;;14.52;;
21162;SDS011;10739;52.198;20.908;2023-09-19T07:59:49;17.95;;;13.75;;
21162;SDS011;10739;52.198;20.908;2023-09-19T08:02:15;22.42;;;14.68;;
21162;SDS011;10739;52.198;20.908;2023-09-19T08:04:45;26.55;;;14.00;;
21162;SDS011;10739;52.198;20.908;2023-09-19T08:07:11;17.60;;;13.43;;
21162;SDS011;10739;52.198;20.908;2023-09-19T08:09:39;27.40;;;15.57;;
21162;SDS011;10739;52.198;20.908;2023-09-19T08:12:06;17.35;;;13.75;;
21162;SDS011;10739;52.198;20.908;2023-09-19T08:14:36;17.17;;;13.80;;
21162;SDS011;10739;52.198;20.908;2023-09-19T08:17:06;20.50;;;13.50;;
21162;SDS011;10739;52.198;20.908;2023-09-19T08:19:33;18.92;;;13.23;;
21162;SDS011;10739;52.198;20.908;2023-09-19T08:22:00;19.77;;;12.40;;
21162;SDS011;10739;52.198;20.908;2023-09-19T08:24:27;17.17;;;12.88;;
21162;SDS011;10739;52.198;20.908;2023-09-19T08:26:55;17.40;;;13.02;;
21162;SDS011;10739;52.198;20.908;2023-09-19T08:29:23;20.27;;;12.15;;
21162;SDS011;10739;52.198;20.908;2023-09-19T08:31:56;15.43;;;12.45;;
21162;SDS011;10739;52.198;20.908;2023-09-19T08:34:23;15.80;;;12.13;;
21162;SDS011;10739;52.198;20.908;2023-09-19T08:36:53;17.52;;;12.50;;
21162;SDS011;10739;52.198;20.908;2023-09-19T08:39:24;16.23;;;11.80;;
21162;SDS011;10739;52.198;20.908;2023-09-19T08:41:58;18.23;;;12.45;;
21162;SDS011;10739;52.198;20.908;2023-09-19T08:44:25;22.10;;;13.38;;
21162;SDS011;10739;52.198;20.908;2023-09-19T08:46:59;19.27;;;13.07;;
21162;SDS011;10739;52.198;20.908;2023-09-19T08:52:54;18.10;;;13.27;;
21162;SDS011;10739;52.198;20.908;2023-09-19T08:55:28;15.57;;;11.90;;
21162;SDS011;10739;52.198;20.908;2023-09-19T08:58:00;16.35;;;11.13;;
21162;SDS011;10739;52.198;20.908;2023-09-19T09:00:31;16.20;;;10.70;;
21162;SDS011;10739;52.198;20.908;2023-09-19T09:03:01;14.05;;;10.52;;
21162;SDS011;10739;52.198;20.908;2023-09-19T09:05:31;15.27;;;11.15;;
21162;SDS011;10739;52.198;20.908;2023-09-19T09:08:01;19.00;;;10.45;;
21162;SDS011;10739;52.198;20.908;2023-09-19T09:10:31;14.40;;;10.32;;
21162;SDS011;10739;52.198;20.908;2023-09-19T09:12:58;16.27;;;10.40;;
21162;SDS011;10739;52.198;20.908;2023-09-19T09:15:24;12.73;;;9.82;;
21162;SDS011;10739;52.198;20.908;2023-09-19T09:17:51;16.05;;;9.98;;
21162;SDS011;10739;52.198;20.908;2023-09-19T09:20:22;20.83;;;10.18;;
21162;SDS011;10739;52.198;20.908;2023-09-19T09:22:52;30.67;;;9.57;;
21162;SDS011;10739;52.198;20.908;2023-09-19T09:25:19;25.88;;;11.05;;
21162;SDS011;10739;52.198;20.908;2023-09-19T09:27:58;34.35;;;14.32;;
21162;SDS011;10739;52.198;20.908;2023-09-19T09:30:34;32.60;;;12.75;;
21162;SDS011;10739;52.198;20.908;2023-09-19T09:33:12;22.23;;;13.88;;
21162;SDS011;10739;52.198;20.908;2023-09-19T09:35:54;25.52;;;13.63;;
21162;SDS011;10739;52.198;20.908;2023-09-19T09:38:46;27.73;;;14.52;;
21162;SDS011;10739;52.198;20.908;2023-09-19T09:41:15;22.35;;;15.52;;
21162;SDS011;10739;52.198;20.908;2023-09-19T09:43:56;26.70;;;15.88;;
21162;SDS011;10739;52.198;20.908;2023-09-19T09:46:41;21.45;;;16.20;;
21162;SDS011;10739;52.198;20.908;2023-09-19T09:49:18;23.20;;;14.75;;
21162;SDS011;10739;52.198;20.908;2023-09-19T09:52:05;20.13;;;14.60;;
21162;SDS011;10739;52.198;20.908;2023-09-19T09:54:57;27.08;;;15.90;;
21162;SDS011;10739;52.198;20.908;2023-09-19T09:57:33;21.33;;;16.27;;
21162;SDS011;10739;52.198;20.908;2023-09-19T10:00:00;20.38;;;16.77;;
21162;SDS011;10739;52.198;20.908;2023-09-19T10:02:54;22.00;;;16.65;;
21162;SDS011;10739;52.198;20.908;2023-09-19T10:05:20;20.15;;;15.00;;
21162;SDS011;10739;52.198;20.908;2023-09-19T10:07:53;16.60;;;12.75;;
21162;SDS011;10739;52.198;20.908;2023-09-19T10:10:34;15.00;;;12.27;;
21162;SDS011;10739;52.198;20.908;2023-09-19T10:13:23;21.95;;;14.27;;
21162;SDS011;10739;52.198;20.908;2023-09-19T10:15:56;16.25;;;12.65;;
21162;SDS011;10739;52.198;20.908;2023-09-19T10:18:35;17.05;;;12.02;;
21162;SDS011;10739;52.198;20.908;2023-09-19T10:21:04;14.90;;;12.20;;
21162;SDS011;10739;52.198;20.908;2023-09-19T10:23:32;16.00;;;12.43;;
21162;SDS011;10739;52.198;20.908;2023-09-19T10:26:02;18.17;;;13.27;;
21162;SDS011;10739;52.198;20.908;2023-09-19T10:28:30;13.30;;;11.05;;
21162;SDS011;10739;52.198;20.908;2023-09-19T10:31:00;17.65;;;12.02;;
21162;SDS011;10739;52.198;20.908;2023-09-19T10:33:28;17.35;;;13.52;;
21162;SDS011;10739;52.198;20.908;2023-09-19T10:36:03;20.67;;;14.50;;
21162;SDS011;10739;52.198;20.908;2023-09-19T10:38:31;15.15;;;11.68;;
21162;SDS011;10739;52.198;20.908;2023-09-19T10:41:02;16.83;;;11.57;;
21162;SDS011;10739;52.198;20.908;2023-09-19T10:43:32;14.75;;;12.30;;
21162;SDS011;10739;52.198;20.908;2023-09-19T10:46:02;16.05;;;11.88;;
21162;SDS011;10739;52.198;20.908;2023-09-19T10:48:32;17.13;;;11.73;;
21162;SDS011;10739;52.198;20.908;2023-09-19T10:53:31;14.05;;;11.20;;
21162;SDS011;10739;52.198;20.908;2023-09-19T10:56:38;15.15;;;9.75;;
21162;SDS011;10739;52.198;20.908;2023-09-19T10:59:15;10.70;;;8.38;;
21162;SDS011;10739;52.198;20.908;2023-09-19T11:01:47;9.60;;;8.60;;
21162;SDS011;10739;52.198;20.908;2023-09-19T11:07:02;11.98;;;9.18;;
21162;SDS011;10739;52.198;20.908;2023-09-19T11:09:49;11.68;;;8.45;;
21162;SDS011;10739;52.198;20.908;2023-09-19T11:15:08;9.57;;;8.07;;
21162;SDS011;10739;52.198;20.908;2023-09-19T11:17:40;15.25;;;8.60;;
21162;SDS011;10739;52.198;20.908;2023-09-19T11:25:41;12.60;;;7.63;;
21162;SDS011;10739;52.198;20.908;2023-09-19T11:30:46;8.50;;;7.63;;
21162;SDS011;10739;52.198;20.908;2023-09-19T11:43:53;11.30;;;8.38;;
21162;SDS011;10739;52.198;20.908;2023-09-19T11:48:53;11.82;;;8.43;;
21162;SDS011;10739;52.198;20.908;2023-09-19T11:51:22;15.68;;;8.73;;
21162;SDS011;10739;52.198;20.908;2023-09-19T11:53:53;14.77;;;9.05;;
21162;SDS011;10739;52.198;20.908;2023-09-19T11:56:23;11.55;;;8.95;;
21162;SDS011;10739;52.198;20.908;2023-09-19T11:58:53;15.38;;;8.82;;
21162;SDS011;10739;52.198;20.908;2023-09-19T12:01:26;12.98;;;9.30;;
21162;SDS011;10739;52.198;20.908;2023-09-19T12:04:00;11.95;;;9.27;;
21162;SDS011;10739;52.198;20.908;2023-09-19T12:06:29;12.57;;;9.20;;
21162;SDS011;10739;52.198;20.908;2023-09-19T12:09:00;14.98;;;9.27;;
21162;SDS011;10739;52.198;20.908;2023-09-19T12:11:32;13.30;;;9.30;;
21162;SDS011;10739;52.198;20.908;2023-09-19T12:14:05;11.60;;;8.73;;
21162;SDS011;10739;52.198;20.908;2023-09-19T12:16:32;17.10;;;9.57;;
21162;SDS011;10739;52.198;20.908;2023-09-19T12:18:58;13.00;;;9.80;;
21162;SDS011;10739;52.198;20.908;2023-09-19T12:22:00;14.43;;;9.68;;
21162;SDS011;10739;52.198;20.908;2023-09-19T12:24:32;11.30;;;8.43;;
21162;SDS011;10739;52.198;20.908;2023-09-19T12:27:01;10.32;;;8.45;;
21162;SDS011;10739;52.198;20.908;2023-09-19T12:29:32;12.18;;;8.25;;
21162;SDS011;10739;52.198;20.908;2023-09-19T12:32:14;10.07;;;7.68;;
21162;SDS011;10739;52.198;20.908;2023-09-19T12:34:50;11.02;;;8.35;;
21162;SDS011;10739;52.198;20.908;2023-09-19T12:37:18;10.27;;;7.78;;
21162;SDS011;10739;52.198;20.908;2023-09-19T12:39:51;9.80;;;8.35;;
21162;SDS011;10739;52.198;20.908;2023-09-19T12:42:23;9.98;;;8.55;;
21162;SDS011;10739;52.198;20.908;2023-09-19T12:44:58;14.30;;;8.70;;
21162;SDS011;10739;52.198;20.908;2023-09-19T12:47:27;12.40;;;9.07;;
21162;SDS011;10739;52.198;20.908;2023-09-19T12:52:36;15.52;;;9.75;;
21162;SDS011;10739;52.198;20.908;2023-09-19T12:55:03;18.25;;;11.00;;
21162;SDS011;10739;52.198;20.908;2023-09-19T12:57:33;14.25;;;9.85;;
21162;SDS011;10739;52.198;20.908;2023-09-19T13:00:04;17.70;;;11.75;;
21162;SDS011;10739;52.198;20.908;2023-09-19T13:02:31;17.08;;;10.48;;
21162;SDS011;10739;52.198;20.908;2023-09-19T13:04:58;28.35;;;11.15;;
21162;SDS011;10739;52.198;20.908;2023-09-19T13:07:45;23.23;;;10.52;;
21162;SDS011;10739;52.198;20.908;2023-09-19T13:10:12;18.08;;;11.15;;
21162;SDS011;10739;52.198;20.908;2023-09-19T13:12:43;16.95;;;10.75;;
21162;SDS011;10739;52.198;20.908;2023-09-19T13:15:13;13.35;;;9.10;;
21162;SDS011;10739;52.198;20.908;2023-09-19T13:17:49;15.77;;;10.13;;
21162;SDS011;10739;52.198;20.908;2023-09-19T13:20:22;17.25;;;10.00;;
21162;SDS011;10739;52.198;20.908;2023-09-19T13:22:57;13.45;;;8.20;;
21162;SDS011;10739;52.198;20.908;2023-09-19T13:25:25;18.60;;;9.52;;
21162;SDS011;10739;52.198;20.908;2023-09-19T13:27:56;15.57;;;9.13;;
21162;SDS011;10739;52.198;20.908;2023-09-19T13:30:23;15.65;;;9.68;;
21162;SDS011;10739;52.198;20.908;2023-09-19T13:33:07;12.65;;;9.55;;
21162;SDS011;10739;52.198;20.908;2023-09-19T13:35:36;13.18;;;9.60;;
21162;SDS011;10739;52.198;20.908;2023-09-19T13:38:06;17.02;;;9.73;;
21162;SDS011;10739;52.198;20.908;2023-09-19T13:40:36;14.68;;;8.95;;
21162;SDS011;10739;52.198;20.908;2023-09-19T13:43:04;14.40;;;9.77;;
21162;SDS011;10739;52.198;20.908;2023-09-19T13:45:32;19.30;;;9.27;;
21162;SDS011;10739;52.198;20.908;2023-09-19T13:47:58;16.25;;;9.52;;
21162;SDS011;10739;52.198;20.908;2023-09-19T13:50:24;12.68;;;10.38;;
21162;SDS011;10739;52.198;20.908;2023-09-19T13:52:51;13.63;;;10.45;;
21162;SDS011;10739;52.198;20.908;2023-09-19T13:55:19;15.10;;;11.38;;
21162;SDS011;10739;52.198;20.908;2023-09-19T13:57:46;16.25;;;11.35;;
21162;SDS011;10739;52.198;20.908;2023-09-19T14:00:18;21.97;;;11.80;;
21162;SDS011;10739;52.198;20.908;2023-09-19T14:02:45;15.27;;;11.68;;
21162;SDS011;10739;52.198;20.908;2023-09-19T14:05:14;17.65;;;11.38;;
21162;SDS011;10739;52.198;20.908;2023-09-19T14:07:42;16.88;;;11.73;;
21162;SDS011;10739;52.198;20.908;2023-09-19T14:10:15;15.48;;;10.95;;
21162;SDS011;10739;52.198;20.908;2023-09-19T14:12:45;17.98;;;8.63;;
21162;SDS011;10739;52.198;20.908;2023-09-19T14:15:11;13.48;;;8.85;;
21162;SDS011;10739;52.198;20.908;2023-09-19T14:17:38;13.93;;;7.10;;
21162;SDS011;10739;52.198;20.908;2023-09-19T14:20:07;12.57;;;7.70;;
21162;SDS011;10739;52.198;20.908;2023-09-19T14:22:36;12.70;;;7.88;;
21162;SDS011;10739;52.198;20.908;2023-09-19T14:25:04;11.05;;;7.10;;
21162;SDS011;10739;52.198;20.908;2023-09-19T14:27:34;10.10;;;7.38;;
21162;SDS011;10739;52.198;20.908;2023-09-19T14:30:01;11.90;;;6.88;;
21162;SDS011;10739;52.198;20.908;2023-09-19T14:32:27;12.63;;;5.82;;
21162;SDS011;10739;52.198;20.908;2023-09-19T14:34:54;7.85;;;6.25;;
21162;SDS011;10739;52.198;20.908;2023-09-19T14:37:20;13.80;;;6.60;;
21162;SDS011;10739;52.198;20.908;2023-09-19T14:39:47;10.13;;;5.97;;
21162;SDS011;10739;52.198;20.908;2023-09-19T14:42:13;11.68;;;6.78;;
21162;SDS011;10739;52.198;20.908;2023-09-19T14:44:43;7.28;;;5.70;;
21162;SDS011;10739;52.198;20.908;2023-09-19T14:47:09;10.65;;;6.30;;
21162;SDS011;10739;52.198;20.908;2023-09-19T14:49:39;10.88;;;6.22;;
21162;SDS011;10739;52.198;20.908;2023-09-19T14:52:09;13.55;;;6.53;;
21162;SDS011;10739;52.198;20.908;2023-09-19T14:54:37;6.35;;;5.40;;
21162;SDS011;10739;52.198;20.908;2023-09-19T14:57:06;8.85;;;6.05;;
21162;SDS011;10739;52.198;20.908;2023-09-19T14:59:34;9.00;;;6.00;;
21162;SDS011;10739;52.198;20.908;2023-09-19T15:02:03;7.85;;;6.00;;
21162;SDS011;10739;52.198;20.908;2023-09-19T15:04:30;7.80;;;5.68;;
21162;SDS011;10739;52.198;20.908;2023-09-19T15:06:56;12.10;;;6.25;;
21162;SDS011;10739;52.198;20.908;2023-09-19T15:09:23;7.07;;;5.65;;
21162;SDS011;10739;52.198;20.908;2023-09-19T15:11:54;10.43;;;5.28;;
21162;SDS011;10739;52.198;20.908;2023-09-19T15:14:21;11.88;;;5.57;;
21162;SDS011;10739;52.198;20.908;2023-09-19T15:16:51;10.80;;;6.15;;
21162;SDS011;10739;52.198;20.908;2023-09-19T15:19:17;8.63;;;6.05;;
21162;SDS011;10739;52.198;20.908;2023-09-19T15:21:44;8.10;;;5.97;;
21162;SDS011;10739;52.198;20.908;2023-09-19T15:24:10;8.52;;;5.75;;
21162;SDS011;10739;52.198;20.908;2023-09-19T15:26:37;6.47;;;5.00;;
21162;SDS011;10739;52.198;20.908;2023-09-19T15:29:09;6.18;;;5.57;;